<?xml version="1.0" encoding="UTF-8"?>
<gpx version="1.1" creator="2bulu-scraper" xmlns="http://www.topografix.com/GPX/1/1">
  <metadata><name>泸州纳溪区</name><desc>source: 2bulu.com trackId=73755556; exported 2026-09-01T14:55:56.300Z</desc>
    <bounds minlat="28.6548951" minlon="105.3798989" maxlat="28.6662716" maxlon="105.3990667"/>
    <link href="https://www.2bulu.com/track/t-ieOMLJTk%252Ferp%252FR2KBg5Tzw%253D%253D.htm"><text>2bulu 源页面</text></link>
  </metadata>
  <wpt lat="28.6623792" lon="105.3893904"><ele>240</ele><name>
        </name></wpt>
  <wpt lat="28.6618502" lon="105.3895258"><ele>238</ele><name>
        </name></wpt>
  <wpt lat="28.6617401" lon="105.3896442"><ele>242</ele><name>右转
        </name></wpt>
  <wpt lat="28.661679" lon="105.3893613"><ele>252</ele><name>
        </name></wpt>
  <wpt lat="28.661132" lon="105.3893799"><ele>259</ele><name>
        </name></wpt>
  <wpt lat="28.6605992" lon="105.3892558"><ele>275</ele><name>
        </name></wpt>
  <wpt lat="28.6605992" lon="105.3892558"><ele>275</ele><name>
        </name></wpt>
  <wpt lat="28.6606237" lon="105.3889933"><ele>274</ele><name>八阵图
        </name></wpt>
  <wpt lat="28.660492" lon="105.3889771"><ele>274</ele><name>
        </name></wpt>
  <wpt lat="28.6603618" lon="105.3890351"><ele>277</ele><name>
        </name></wpt>
  <wpt lat="28.6603618" lon="105.3890351"><ele>277</ele><name>
        </name></wpt>
  <wpt lat="28.6602632" lon="105.3890724"><ele>277</ele><name>
        </name></wpt>
  <wpt lat="28.660281" lon="105.3892922"><ele>270</ele><name>右边
        </name></wpt>
  <wpt lat="28.6592296" lon="105.3892775"><ele>275</ele><name>
        </name></wpt>
  <wpt lat="28.6589165" lon="105.389672"><ele>279</ele><name>第一个瀑布
        </name></wpt>
  <wpt lat="28.6584432" lon="105.3898547"><ele>281</ele><name>
        </name></wpt>
  <wpt lat="28.6575283" lon="105.3892892"><ele>319</ele><name>
        </name></wpt>
  <wpt lat="28.6575283" lon="105.3892892"><ele>319</ele><name>
        </name></wpt>
  <wpt lat="28.6562745" lon="105.3890978"><ele>320</ele><name>右转第二个瀑布
        </name></wpt>
  <wpt lat="28.6563079" lon="105.3886778"><ele>314</ele><name>二级瀑布
        </name></wpt>
  <wpt lat="28.6562491" lon="105.3891281"><ele>329</ele><name>
        </name></wpt>
  <wpt lat="28.6551328" lon="105.3886022"><ele>350</ele><name>
        </name></wpt>
  <wpt lat="28.6551328" lon="105.3886022"><ele>350</ele><name>
        </name></wpt>
  <wpt lat="28.6551604" lon="105.3883348"><ele>356</ele><name>
        </name></wpt>
  <wpt lat="28.6550732" lon="105.3883675"><ele>364</ele><name>
        </name></wpt>
  <wpt lat="28.6548951" lon="105.3882255"><ele>364</ele><name>
        </name></wpt>
  <wpt lat="28.6572578" lon="105.3898452"><ele>359</ele><name>
        </name></wpt>
  <wpt lat="28.6579928" lon="105.3905635"><ele>391</ele><name>
        </name></wpt>
  <wpt lat="28.6582268" lon="105.391023"><ele>384</ele><name>
        </name></wpt>
  <wpt lat="28.6582268" lon="105.391023"><ele>384</ele><name>
        </name></wpt>
  <wpt lat="28.6592683" lon="105.3906495"><ele>389</ele><name>
        </name></wpt>
  <wpt lat="28.6614429" lon="105.391818"><ele>386</ele><name>
        </name></wpt>
  <wpt lat="28.6623599" lon="105.3989625"><ele>362</ele><name>
        </name></wpt>
  <wpt lat="28.6623599" lon="105.3989625"><ele>362</ele><name>
        </name></wpt>
  <wpt lat="28.6623717" lon="105.3985053"><ele>355</ele><name>
        </name></wpt>
  <wpt lat="28.6627598" lon="105.3981592"><ele>323</ele><name>
        </name></wpt>
  <wpt lat="28.663083" lon="105.3978323"><ele>312</ele><name>
        </name></wpt>
  <wpt lat="28.6626161" lon="105.395904"><ele>298</ele><name>
        </name></wpt>
  <wpt lat="28.6619223" lon="105.3927493"><ele>282</ele><name>全福门
        </name></wpt>
  <wpt lat="28.6621409" lon="105.3924138"><ele>283</ele><name>
        </name></wpt>
  <wpt lat="28.6623678" lon="105.390353"><ele>252</ele><name>
        </name></wpt>
  <wpt lat="28.6618909" lon="105.3898562"><ele>241</ele><name>
        </name></wpt>
  <wpt lat="28.6618909" lon="105.3898562"><ele>241</ele><name>
        </name></wpt>
  <wpt lat="28.6617747" lon="105.3896182"><ele>237</ele><name>右转
        </name></wpt>
  <wpt lat="28.6622479" lon="105.3894814"><ele>239</ele><name>
        </name></wpt>
  <wpt lat="28.6627005" lon="105.3888715"><ele>237</ele><name>
        </name></wpt>
  <wpt lat="28.6628953" lon="105.3879154"><ele>235</ele><name>
        </name></wpt>
  <wpt lat="28.6629688" lon="105.3871191"><ele>235</ele><name>
        </name></wpt>
  <wpt lat="28.6629973" lon="105.3840676"><ele>218</ele><name>
        </name></wpt>
  <wpt lat="28.6630217" lon="105.3832129"><ele>222</ele><name>
        </name></wpt>
  <wpt lat="28.6630185" lon="105.3831578"><ele>220</ele><name>
        </name></wpt>
  <wpt lat="28.663837" lon="105.3814538"><ele>220</ele><name>
        </name></wpt>
  <wpt lat="28.6638792" lon="105.3802963"><ele>225</ele><name>
        </name></wpt>
  <wpt lat="28.6637852" lon="105.379926"><ele>222</ele><name>
        </name></wpt>
  <wpt lat="28.6642193" lon="105.3799779"><ele>218</ele><name>
        </name></wpt>
  <wpt lat="28.6648223" lon="105.3801507"><ele>218</ele><name>
        </name></wpt>
  <wpt lat="28.6649896" lon="105.3802066"><ele>223</ele><name>
        </name></wpt>
  <wpt lat="28.6649896" lon="105.3802066"><ele>223</ele><name>
        </name></wpt>
  <wpt lat="28.6651384" lon="105.3803516"><ele>217</ele><name>
        </name></wpt>
  <wpt lat="28.665986" lon="105.3811234"><ele>261</ele><name>
        </name></wpt>
  <trk><name>泸州纳溪区</name>
      <trkseg>
        <trkpt lat="28.6625619" lon="105.3891836"><ele>249.64</ele><time>2025-10-27T21:02:20.000Z</time></trkpt>
        <trkpt lat="28.662527" lon="105.3892753"><ele>249.64</ele><time>2025-10-27T21:02:36.000Z</time></trkpt>
        <trkpt lat="28.6624512" lon="105.3893397"><ele>247.78</ele><time>2025-10-27T21:02:44.000Z</time></trkpt>
        <trkpt lat="28.6623792" lon="105.3893904"><ele>245.7</ele><time>2025-10-27T21:02:54.000Z</time></trkpt>
        <trkpt lat="28.6622885" lon="105.3893739"><ele>243.09</ele><time>2025-10-27T21:03:10.000Z</time></trkpt>
        <trkpt lat="28.6622187" lon="105.3894355"><ele>241.27</ele><time>2025-10-27T21:03:21.000Z</time></trkpt>
        <trkpt lat="28.6621417" lon="105.3895047"><ele>239.62</ele><time>2025-10-27T21:03:31.000Z</time></trkpt>
        <trkpt lat="28.6620483" lon="105.3895355"><ele>238.28</ele><time>2025-10-27T21:03:41.000Z</time></trkpt>
        <trkpt lat="28.6619505" lon="105.3895184"><ele>237.79</ele><time>2025-10-27T21:03:51.000Z</time></trkpt>
        <trkpt lat="28.6618502" lon="105.3895258"><ele>237.72</ele><time>2025-10-27T21:04:01.000Z</time></trkpt>
        <trkpt lat="28.6617906" lon="105.3895392"><ele>237.74</ele><time>2025-10-27T21:04:09.000Z</time></trkpt>
        <trkpt lat="28.6617528" lon="105.389615"><ele>238.96</ele><time>2025-10-27T21:04:37.000Z</time></trkpt>
        <trkpt lat="28.6617401" lon="105.3896442"><ele>240.59</ele><time>2025-10-27T21:04:39.000Z</time></trkpt>
        <trkpt lat="28.6617194" lon="105.3895764"><ele>241.29</ele><time>2025-10-27T21:05:07.000Z</time></trkpt>
        <trkpt lat="28.66169" lon="105.3894758"><ele>240.79</ele><time>2025-10-27T21:05:15.000Z</time></trkpt>
        <trkpt lat="28.661679" lon="105.3893613"><ele>241.1</ele><time>2025-10-27T21:05:31.000Z</time></trkpt>
        <trkpt lat="28.6616085" lon="105.3893473"><ele>245.65</ele><time>2025-10-27T21:05:57.000Z</time></trkpt>
        <trkpt lat="28.6615093" lon="105.3893465"><ele>247.3</ele><time>2025-10-27T21:06:07.000Z</time></trkpt>
        <trkpt lat="28.6614105" lon="105.3893818"><ele>248.18</ele><time>2025-10-27T21:06:17.000Z</time></trkpt>
        <trkpt lat="28.6613145" lon="105.3893825"><ele>248.94</ele><time>2025-10-27T21:06:29.000Z</time></trkpt>
        <trkpt lat="28.6612199" lon="105.3893481"><ele>247.99</ele><time>2025-10-27T21:06:45.000Z</time></trkpt>
        <trkpt lat="28.661132" lon="105.3893799"><ele>248.23</ele><time>2025-10-27T21:07:02.000Z</time></trkpt>
        <trkpt lat="28.6610517" lon="105.3893431"><ele>252.88</ele><time>2025-10-27T21:07:16.000Z</time></trkpt>
        <trkpt lat="28.6609641" lon="105.3893324"><ele>254.35</ele><time>2025-10-27T21:07:32.000Z</time></trkpt>
        <trkpt lat="28.6608645" lon="105.3893609"><ele>258.81</ele><time>2025-10-27T21:07:40.000Z</time></trkpt>
        <trkpt lat="28.6607694" lon="105.3893894"><ele>261.89</ele><time>2025-10-27T21:07:50.000Z</time></trkpt>
        <trkpt lat="28.6606759" lon="105.389338"><ele>264.03</ele><time>2025-10-27T21:07:56.000Z</time></trkpt>
        <trkpt lat="28.6605992" lon="105.3892558"><ele>263.44</ele><time>2025-10-27T21:08:10.000Z</time></trkpt>
        <trkpt lat="28.6606679" lon="105.3892375"><ele>268.37</ele><time>2025-10-27T21:08:34.000Z</time></trkpt>
        <trkpt lat="28.6607231" lon="105.3891441"><ele>267.47</ele><time>2025-10-27T21:08:42.000Z</time></trkpt>
        <trkpt lat="28.660707" lon="105.3890423"><ele>267.01</ele><time>2025-10-27T21:08:50.000Z</time></trkpt>
        <trkpt lat="28.6606237" lon="105.3889933"><ele>269.44</ele><time>2025-10-27T21:09:04.000Z</time></trkpt>
        <trkpt lat="28.660492" lon="105.3889771"><ele>271.52</ele><time>2025-10-27T21:10:04.000Z</time></trkpt>
        <trkpt lat="28.6604102" lon="105.3890487"><ele>272.52</ele><time>2025-10-27T21:10:14.000Z</time></trkpt>
        <trkpt lat="28.6604061" lon="105.3890866"><ele>274.68</ele><time>2025-10-27T21:10:20.000Z</time></trkpt>
        <trkpt lat="28.6603618" lon="105.3890351"><ele>274.51</ele><time>2025-10-27T21:10:30.000Z</time></trkpt>
        <trkpt lat="28.6602839" lon="105.3890509"><ele>275.53</ele><time>2025-10-27T21:11:00.000Z</time></trkpt>
        <trkpt lat="28.6602632" lon="105.3890724"><ele>276.85</ele><time>2025-10-27T21:11:04.000Z</time></trkpt>
        <trkpt lat="28.6603008" lon="105.3891486"><ele>277.07</ele><time>2025-10-27T21:11:20.000Z</time></trkpt>
        <trkpt lat="28.6603174" lon="105.3891781"><ele>277.02</ele><time>2025-10-27T21:11:22.000Z</time></trkpt>
        <trkpt lat="28.6603165" lon="105.3892769"><ele>276.23</ele><time>2025-10-27T21:11:34.000Z</time></trkpt>
        <trkpt lat="28.660281" lon="105.3892922"><ele>275.34</ele><time>2025-10-27T21:11:44.000Z</time></trkpt>
        <trkpt lat="28.6601936" lon="105.3892933"><ele>272.9</ele><time>2025-10-27T21:12:10.000Z</time></trkpt>
        <trkpt lat="28.6601042" lon="105.3893388"><ele>271.14</ele><time>2025-10-27T21:12:20.000Z</time></trkpt>
        <trkpt lat="28.6600373" lon="105.3892829"><ele>271.51</ele><time>2025-10-27T21:12:28.000Z</time></trkpt>
        <trkpt lat="28.6599486" lon="105.3892526"><ele>272.14</ele><time>2025-10-27T21:12:38.000Z</time></trkpt>
        <trkpt lat="28.6598445" lon="105.3892735"><ele>273.23</ele><time>2025-10-27T21:12:48.000Z</time></trkpt>
        <trkpt lat="28.659748" lon="105.3892706"><ele>274.72</ele><time>2025-10-27T21:12:54.000Z</time></trkpt>
        <trkpt lat="28.6596425" lon="105.3892935"><ele>274.78</ele><time>2025-10-27T21:13:00.000Z</time></trkpt>
        <trkpt lat="28.6595339" lon="105.3893022"><ele>273.75</ele><time>2025-10-27T21:13:08.000Z</time></trkpt>
        <trkpt lat="28.6594251" lon="105.3893063"><ele>275.65</ele><time>2025-10-27T21:13:14.000Z</time></trkpt>
        <trkpt lat="28.6593285" lon="105.3892892"><ele>278.12</ele><time>2025-10-27T21:13:20.000Z</time></trkpt>
        <trkpt lat="28.6592296" lon="105.3892775"><ele>278.32</ele><time>2025-10-27T21:13:28.000Z</time></trkpt>
        <trkpt lat="28.6591251" lon="105.3893"><ele>276.99</ele><time>2025-10-27T21:13:38.000Z</time></trkpt>
        <trkpt lat="28.659052" lon="105.3893806"><ele>275.59</ele><time>2025-10-27T21:13:46.000Z</time></trkpt>
        <trkpt lat="28.6590268" lon="105.3894935"><ele>275.17</ele><time>2025-10-27T21:13:55.000Z</time></trkpt>
        <trkpt lat="28.6589973" lon="105.3896043"><ele>274.1</ele><time>2025-10-27T21:14:04.000Z</time></trkpt>
        <trkpt lat="28.6589165" lon="105.389672"><ele>274.23</ele><time>2025-10-27T21:14:14.000Z</time></trkpt>
        <trkpt lat="28.658834" lon="105.3896462"><ele>276.33</ele><time>2025-10-27T21:14:48.000Z</time></trkpt>
        <trkpt lat="28.6587275" lon="105.3896267"><ele>278.6</ele><time>2025-10-27T21:16:03.000Z</time></trkpt>
        <trkpt lat="28.6586449" lon="105.3896822"><ele>280.17</ele><time>2025-10-27T21:16:11.000Z</time></trkpt>
        <trkpt lat="28.6585577" lon="105.3897216"><ele>279.92</ele><time>2025-10-27T21:16:23.000Z</time></trkpt>
        <trkpt lat="28.6584804" lon="105.3898027"><ele>280.88</ele><time>2025-10-27T21:16:41.000Z</time></trkpt>
        <trkpt lat="28.6584432" lon="105.3898547"><ele>281.84</ele><time>2025-10-27T21:17:01.000Z</time></trkpt>
        <trkpt lat="28.658464" lon="105.3897901"><ele>281.3</ele><time>2025-10-27T21:17:31.000Z</time></trkpt>
        <trkpt lat="28.6584668" lon="105.389673"><ele>282.69</ele><time>2025-10-27T21:17:39.000Z</time></trkpt>
        <trkpt lat="28.6584093" lon="105.3896146"><ele>284.03</ele><time>2025-10-27T21:17:57.000Z</time></trkpt>
        <trkpt lat="28.6583316" lon="105.3895457"><ele>286.97</ele><time>2025-10-27T21:18:17.000Z</time></trkpt>
        <trkpt lat="28.6582347" lon="105.3895302"><ele>288.62</ele><time>2025-10-27T21:18:35.000Z</time></trkpt>
        <trkpt lat="28.658139" lon="105.3894877"><ele>290.1</ele><time>2025-10-27T21:18:51.000Z</time></trkpt>
        <trkpt lat="28.6580649" lon="105.3895485"><ele>292.01</ele><time>2025-10-27T21:18:59.000Z</time></trkpt>
        <trkpt lat="28.6579778" lon="105.3895902"><ele>295.43</ele><time>2025-10-27T21:19:11.000Z</time></trkpt>
        <trkpt lat="28.6578776" lon="105.3895768"><ele>299.89</ele><time>2025-10-27T21:19:21.000Z</time></trkpt>
        <trkpt lat="28.657786" lon="105.3895094"><ele>304.43</ele><time>2025-10-27T21:19:29.000Z</time></trkpt>
        <trkpt lat="28.6577037" lon="105.3894414"><ele>308.83</ele><time>2025-10-27T21:19:35.000Z</time></trkpt>
        <trkpt lat="28.6576247" lon="105.3893593"><ele>311.34</ele><time>2025-10-27T21:19:43.000Z</time></trkpt>
        <trkpt lat="28.6575283" lon="105.3892892"><ele>313.13</ele><time>2025-10-27T21:19:51.000Z</time></trkpt>
        <trkpt lat="28.6574173" lon="105.3892535"><ele>315.85</ele><time>2025-10-27T21:20:05.000Z</time></trkpt>
        <trkpt lat="28.6573105" lon="105.3892924"><ele>316.82</ele><time>2025-10-27T21:20:13.000Z</time></trkpt>
        <trkpt lat="28.6572007" lon="105.3893103"><ele>318.28</ele><time>2025-10-27T21:20:21.000Z</time></trkpt>
        <trkpt lat="28.657101" lon="105.3893211"><ele>320.69</ele><time>2025-10-27T21:20:25.000Z</time></trkpt>
        <trkpt lat="28.6570051" lon="105.3893057"><ele>321.81</ele><time>2025-10-27T21:20:31.000Z</time></trkpt>
        <trkpt lat="28.6568953" lon="105.3892764"><ele>322.31</ele><time>2025-10-27T21:20:39.000Z</time></trkpt>
        <trkpt lat="28.6567889" lon="105.3892621"><ele>321.34</ele><time>2025-10-27T21:20:45.000Z</time></trkpt>
        <trkpt lat="28.6566849" lon="105.3892997"><ele>321.06</ele><time>2025-10-27T21:20:51.000Z</time></trkpt>
        <trkpt lat="28.6565725" lon="105.3893436"><ele>319.26</ele><time>2025-10-27T21:20:59.000Z</time></trkpt>
        <trkpt lat="28.6564771" lon="105.3893394"><ele>317.82</ele><time>2025-10-27T21:21:07.000Z</time></trkpt>
        <trkpt lat="28.6564099" lon="105.3892608"><ele>319.36</ele><time>2025-10-27T21:21:17.000Z</time></trkpt>
        <trkpt lat="28.6563677" lon="105.3891425"><ele>320.95</ele><time>2025-10-27T21:21:27.000Z</time></trkpt>
        <trkpt lat="28.6563011" lon="105.38907"><ele>321.21</ele><time>2025-10-27T21:21:33.000Z</time></trkpt>
        <trkpt lat="28.6562745" lon="105.3890978"><ele>319.45</ele><time>2025-10-27T21:21:45.000Z</time></trkpt>
        <trkpt lat="28.6562462" lon="105.3890328"><ele>319.5</ele><time>2025-10-27T21:22:01.000Z</time></trkpt>
        <trkpt lat="28.6561927" lon="105.388953"><ele>319.11</ele><time>2025-10-27T21:22:07.000Z</time></trkpt>
        <trkpt lat="28.6561714" lon="105.3888521"><ele>319.01</ele><time>2025-10-27T21:22:15.000Z</time></trkpt>
        <trkpt lat="28.6562242" lon="105.3887602"><ele>320.08</ele><time>2025-10-27T21:22:25.000Z</time></trkpt>
        <trkpt lat="28.6563079" lon="105.3886778"><ele>318.78</ele><time>2025-10-27T21:22:39.000Z</time></trkpt>
        <trkpt lat="28.6563665" lon="105.3886577"><ele>316.73</ele><time>2025-10-27T21:22:47.000Z</time></trkpt>
        <trkpt lat="28.6563629" lon="105.3887379"><ele>313.64</ele><time>2025-10-27T21:23:20.000Z</time></trkpt>
        <trkpt lat="28.6562858" lon="105.3888382"><ele>313.63</ele><time>2025-10-27T21:23:34.000Z</time></trkpt>
        <trkpt lat="28.6561781" lon="105.3888931"><ele>315.83</ele><time>2025-10-27T21:23:42.000Z</time></trkpt>
        <trkpt lat="28.6561796" lon="105.3889792"><ele>316.87</ele><time>2025-10-27T21:23:48.000Z</time></trkpt>
        <trkpt lat="28.6562688" lon="105.3890808"><ele>319.63</ele><time>2025-10-27T21:23:54.000Z</time></trkpt>
        <trkpt lat="28.6562491" lon="105.3891281"><ele>321.48</ele><time>2025-10-27T21:24:02.000Z</time></trkpt>
        <trkpt lat="28.6562187" lon="105.3892257"><ele>324.76</ele><time>2025-10-27T21:24:14.000Z</time></trkpt>
        <trkpt lat="28.6562725" lon="105.3892762"><ele>325.47</ele><time>2025-10-27T21:24:30.000Z</time></trkpt>
        <trkpt lat="28.6563304" lon="105.3893701"><ele>324.93</ele><time>2025-10-27T21:24:34.000Z</time></trkpt>
        <trkpt lat="28.6563736" lon="105.3894705"><ele>324.57</ele><time>2025-10-27T21:24:42.000Z</time></trkpt>
        <trkpt lat="28.656372" lon="105.3894816"><ele>328.33</ele><time>2025-10-27T21:24:46.000Z</time></trkpt>
        <trkpt lat="28.6562975" lon="105.3895341"><ele>330.36</ele><time>2025-10-27T21:24:54.000Z</time></trkpt>
        <trkpt lat="28.6563171" lon="105.3895364"><ele>321.28</ele><time>2025-10-27T21:25:02.000Z</time></trkpt>
        <trkpt lat="28.6562422" lon="105.3895959"><ele>323.93</ele><time>2025-10-27T21:26:16.000Z</time></trkpt>
        <trkpt lat="28.6561751" lon="105.3896722"><ele>329.09</ele><time>2025-10-27T21:26:32.000Z</time></trkpt>
        <trkpt lat="28.6560823" lon="105.389641"><ele>333.18</ele><time>2025-10-27T21:26:50.000Z</time></trkpt>
        <trkpt lat="28.6560077" lon="105.3895492"><ele>336.23</ele><time>2025-10-27T21:27:00.000Z</time></trkpt>
        <trkpt lat="28.6560041" lon="105.3894292"><ele>338.83</ele><time>2025-10-27T21:27:06.000Z</time></trkpt>
        <trkpt lat="28.656033" lon="105.3893147"><ele>342.76</ele><time>2025-10-27T21:27:10.000Z</time></trkpt>
        <trkpt lat="28.6560571" lon="105.3891921"><ele>346.09</ele><time>2025-10-27T21:27:16.000Z</time></trkpt>
        <trkpt lat="28.6560423" lon="105.3890768"><ele>348.28</ele><time>2025-10-27T21:27:22.000Z</time></trkpt>
        <trkpt lat="28.6560316" lon="105.3889593"><ele>350.98</ele><time>2025-10-27T21:27:32.000Z</time></trkpt>
        <trkpt lat="28.6560811" lon="105.3888598"><ele>352.48</ele><time>2025-10-27T21:27:40.000Z</time></trkpt>
        <trkpt lat="28.6560529" lon="105.3887543"><ele>355.18</ele><time>2025-10-27T21:27:48.000Z</time></trkpt>
        <trkpt lat="28.6559709" lon="105.3887062"><ele>356.19</ele><time>2025-10-27T21:27:54.000Z</time></trkpt>
        <trkpt lat="28.6558659" lon="105.3886455"><ele>356.81</ele><time>2025-10-27T21:28:02.000Z</time></trkpt>
        <trkpt lat="28.6557673" lon="105.388574"><ele>356.64</ele><time>2025-10-27T21:28:10.000Z</time></trkpt>
        <trkpt lat="28.655663" lon="105.388525"><ele>357.65</ele><time>2025-10-27T21:28:18.000Z</time></trkpt>
        <trkpt lat="28.6555615" lon="105.3884986"><ele>359.61</ele><time>2025-10-27T21:28:24.000Z</time></trkpt>
        <trkpt lat="28.6554592" lon="105.3885039"><ele>361.24</ele><time>2025-10-27T21:28:30.000Z</time></trkpt>
        <trkpt lat="28.6553615" lon="105.3885288"><ele>360.98</ele><time>2025-10-27T21:28:36.000Z</time></trkpt>
        <trkpt lat="28.6552702" lon="105.3885497"><ele>362.74</ele><time>2025-10-27T21:28:42.000Z</time></trkpt>
        <trkpt lat="28.6551967" lon="105.3886124"><ele>363.53</ele><time>2025-10-27T21:28:48.000Z</time></trkpt>
        <trkpt lat="28.6551328" lon="105.3886022"><ele>362.78</ele><time>2025-10-27T21:29:02.000Z</time></trkpt>
        <trkpt lat="28.6551362" lon="105.3884965"><ele>357.29</ele><time>2025-10-27T21:29:18.000Z</time></trkpt>
        <trkpt lat="28.6551283" lon="105.3883674"><ele>354.95</ele><time>2025-10-27T21:29:24.000Z</time></trkpt>
        <trkpt lat="28.6551604" lon="105.3883348"><ele>355.15</ele><time>2025-10-27T21:29:32.000Z</time></trkpt>
        <trkpt lat="28.6550998" lon="105.388361"><ele>355.71</ele><time>2025-10-27T21:29:42.000Z</time></trkpt>
        <trkpt lat="28.6550732" lon="105.3883675"><ele>359.26</ele><time>2025-10-27T21:29:44.000Z</time></trkpt>
        <trkpt lat="28.6550349" lon="105.3882929"><ele>361.26</ele><time>2025-10-27T21:29:54.000Z</time></trkpt>
        <trkpt lat="28.6549563" lon="105.3882465"><ele>361.32</ele><time>2025-10-27T21:30:02.000Z</time></trkpt>
        <trkpt lat="28.6548951" lon="105.3882255"><ele>360.73</ele><time>2025-10-27T21:30:10.000Z</time></trkpt>
        <trkpt lat="28.6549541" lon="105.3882012"><ele>362.14</ele><time>2025-10-27T21:30:58.000Z</time></trkpt>
        <trkpt lat="28.6550487" lon="105.3882525"><ele>364.51</ele><time>2025-10-27T21:31:08.000Z</time></trkpt>
        <trkpt lat="28.6551281" lon="105.3883439"><ele>366.48</ele><time>2025-10-27T21:31:14.000Z</time></trkpt>
        <trkpt lat="28.6551795" lon="105.3884571"><ele>368.69</ele><time>2025-10-27T21:31:18.000Z</time></trkpt>
        <trkpt lat="28.6551673" lon="105.3885732"><ele>369.34</ele><time>2025-10-27T21:31:24.000Z</time></trkpt>
        <trkpt lat="28.6551458" lon="105.3886961"><ele>366.6</ele><time>2025-10-27T21:31:34.000Z</time></trkpt>
        <trkpt lat="28.6551297" lon="105.3888083"><ele>360.74</ele><time>2025-10-27T21:31:42.000Z</time></trkpt>
        <trkpt lat="28.6551975" lon="105.3888291"><ele>355.86</ele><time>2025-10-27T21:31:48.000Z</time></trkpt>
        <trkpt lat="28.6552814" lon="105.3887701"><ele>351.86</ele><time>2025-10-27T21:31:54.000Z</time></trkpt>
        <trkpt lat="28.6553723" lon="105.3887007"><ele>350.56</ele><time>2025-10-27T21:32:00.000Z</time></trkpt>
        <trkpt lat="28.6554602" lon="105.3886291"><ele>351.28</ele><time>2025-10-27T21:32:04.000Z</time></trkpt>
        <trkpt lat="28.6555557" lon="105.3885741"><ele>352.38</ele><time>2025-10-27T21:32:10.000Z</time></trkpt>
        <trkpt lat="28.6556537" lon="105.3885683"><ele>352.91</ele><time>2025-10-27T21:32:16.000Z</time></trkpt>
        <trkpt lat="28.6557656" lon="105.3885823"><ele>353.48</ele><time>2025-10-27T21:32:22.000Z</time></trkpt>
        <trkpt lat="28.6558489" lon="105.3886473"><ele>353.99</ele><time>2025-10-27T21:32:28.000Z</time></trkpt>
        <trkpt lat="28.6559161" lon="105.388726"><ele>355.1</ele><time>2025-10-27T21:32:36.000Z</time></trkpt>
        <trkpt lat="28.6558685" lon="105.3887948"><ele>357</ele><time>2025-10-27T21:32:46.000Z</time></trkpt>
        <trkpt lat="28.6558748" lon="105.3888815"><ele>354.59</ele><time>2025-10-27T21:32:52.000Z</time></trkpt>
        <trkpt lat="28.6558885" lon="105.3888928"><ele>351.66</ele><time>2025-10-27T21:32:54.000Z</time></trkpt>
        <trkpt lat="28.6559496" lon="105.3889591"><ele>350.31</ele><time>2025-10-27T21:33:08.000Z</time></trkpt>
        <trkpt lat="28.656021" lon="105.3890549"><ele>351.1</ele><time>2025-10-27T21:33:16.000Z</time></trkpt>
        <trkpt lat="28.6560719" lon="105.3891771"><ele>353.09</ele><time>2025-10-27T21:33:24.000Z</time></trkpt>
        <trkpt lat="28.6561004" lon="105.3893105"><ele>353.83</ele><time>2025-10-27T21:33:30.000Z</time></trkpt>
        <trkpt lat="28.6560515" lon="105.3894305"><ele>354.25</ele><time>2025-10-27T21:33:38.000Z</time></trkpt>
        <trkpt lat="28.6560702" lon="105.3895464"><ele>355.21</ele><time>2025-10-27T21:33:46.000Z</time></trkpt>
        <trkpt lat="28.6561427" lon="105.3896332"><ele>354.62</ele><time>2025-10-27T21:33:54.000Z</time></trkpt>
        <trkpt lat="28.656195" lon="105.3895928"><ele>353.94</ele><time>2025-10-27T21:34:04.000Z</time></trkpt>
        <trkpt lat="28.6562907" lon="105.3895494"><ele>353.11</ele><time>2025-10-27T21:34:20.000Z</time></trkpt>
        <trkpt lat="28.6564022" lon="105.3894811"><ele>349.88</ele><time>2025-10-27T21:34:28.000Z</time></trkpt>
        <trkpt lat="28.6564654" lon="105.3895301"><ele>346.22</ele><time>2025-10-27T21:34:38.000Z</time></trkpt>
        <trkpt lat="28.6564898" lon="105.3895315"><ele>341.9</ele><time>2025-10-27T21:34:42.000Z</time></trkpt>
        <trkpt lat="28.6565869" lon="105.3895433"><ele>340.41</ele><time>2025-10-27T21:34:58.000Z</time></trkpt>
        <trkpt lat="28.6566603" lon="105.3896322"><ele>339.74</ele><time>2025-10-27T21:35:06.000Z</time></trkpt>
        <trkpt lat="28.6567469" lon="105.3896999"><ele>339.81</ele><time>2025-10-27T21:35:14.000Z</time></trkpt>
        <trkpt lat="28.6568428" lon="105.3897319"><ele>339.8</ele><time>2025-10-27T21:35:26.000Z</time></trkpt>
        <trkpt lat="28.6569291" lon="105.3897743"><ele>340.92</ele><time>2025-10-27T21:35:38.000Z</time></trkpt>
        <trkpt lat="28.6570279" lon="105.3897624"><ele>341.91</ele><time>2025-10-27T21:35:48.000Z</time></trkpt>
        <trkpt lat="28.6571314" lon="105.3897266"><ele>345.57</ele><time>2025-10-27T21:35:54.000Z</time></trkpt>
        <trkpt lat="28.6571453" lon="105.3897309"><ele>348.04</ele><time>2025-10-27T21:35:58.000Z</time></trkpt>
        <trkpt lat="28.6572178" lon="105.3897106"><ele>348.51</ele><time>2025-10-27T21:36:22.000Z</time></trkpt>
        <trkpt lat="28.6572055" lon="105.3897725"><ele>350.78</ele><time>2025-10-27T21:36:38.000Z</time></trkpt>
        <trkpt lat="28.6572578" lon="105.3898452"><ele>354.11</ele><time>2025-10-27T21:36:46.000Z</time></trkpt>
        <trkpt lat="28.6573325" lon="105.3899359"><ele>356.04</ele><time>2025-10-27T21:37:18.000Z</time></trkpt>
        <trkpt lat="28.6574277" lon="105.3899555"><ele>358.13</ele><time>2025-10-27T21:37:22.000Z</time></trkpt>
        <trkpt lat="28.6575371" lon="105.3899532"><ele>359.26</ele><time>2025-10-27T21:37:30.000Z</time></trkpt>
        <trkpt lat="28.6575362" lon="105.3900204"><ele>363.55</ele><time>2025-10-27T21:37:50.000Z</time></trkpt>
        <trkpt lat="28.6574655" lon="105.3900108"><ele>367.02</ele><time>2025-10-27T21:38:02.000Z</time></trkpt>
        <trkpt lat="28.6573701" lon="105.389967"><ele>372.77</ele><time>2025-10-27T21:38:18.000Z</time></trkpt>
        <trkpt lat="28.6572834" lon="105.3898986"><ele>375.18</ele><time>2025-10-27T21:38:28.000Z</time></trkpt>
        <trkpt lat="28.6572109" lon="105.3899441"><ele>377.38</ele><time>2025-10-27T21:38:42.000Z</time></trkpt>
        <trkpt lat="28.65716" lon="105.3899926"><ele>377.86</ele><time>2025-10-27T21:38:52.000Z</time></trkpt>
        <trkpt lat="28.6572109" lon="105.3899583"><ele>380.12</ele><time>2025-10-27T21:39:04.000Z</time></trkpt>
        <trkpt lat="28.6573083" lon="105.3899575"><ele>380.86</ele><time>2025-10-27T21:39:10.000Z</time></trkpt>
        <trkpt lat="28.6574008" lon="105.3900079"><ele>379.45</ele><time>2025-10-27T21:39:14.000Z</time></trkpt>
        <trkpt lat="28.6574756" lon="105.3900894"><ele>377.35</ele><time>2025-10-27T21:39:24.000Z</time></trkpt>
        <trkpt lat="28.6575725" lon="105.3900815"><ele>376.27</ele><time>2025-10-27T21:39:32.000Z</time></trkpt>
        <trkpt lat="28.6576674" lon="105.3900547"><ele>375.1</ele><time>2025-10-27T21:39:40.000Z</time></trkpt>
        <trkpt lat="28.6577193" lon="105.390117"><ele>375.13</ele><time>2025-10-27T21:39:50.000Z</time></trkpt>
        <trkpt lat="28.6577882" lon="105.3901811"><ele>378.12</ele><time>2025-10-27T21:39:56.000Z</time></trkpt>
        <trkpt lat="28.6578456" lon="105.3902627"><ele>381.74</ele><time>2025-10-27T21:40:10.000Z</time></trkpt>
        <trkpt lat="28.6579004" lon="105.3903509"><ele>385.29</ele><time>2025-10-27T21:40:18.000Z</time></trkpt>
        <trkpt lat="28.6579559" lon="105.3904459"><ele>387.47</ele><time>2025-10-27T21:40:26.000Z</time></trkpt>
        <trkpt lat="28.6579928" lon="105.3905635"><ele>388.1</ele><time>2025-10-27T21:40:34.000Z</time></trkpt>
        <trkpt lat="28.6579911" lon="105.3906825"><ele>389.28</ele><time>2025-10-27T21:40:44.000Z</time></trkpt>
        <trkpt lat="28.6580161" lon="105.3908097"><ele>389.88</ele><time>2025-10-27T21:40:54.000Z</time></trkpt>
        <trkpt lat="28.6580907" lon="105.3908828"><ele>387.57</ele><time>2025-10-27T21:41:02.000Z</time></trkpt>
        <trkpt lat="28.6581669" lon="105.390965"><ele>386.2</ele><time>2025-10-27T21:41:12.000Z</time></trkpt>
        <trkpt lat="28.6582256" lon="105.3909649"><ele>387.28</ele><time>2025-10-27T21:41:16.000Z</time></trkpt>
        <trkpt lat="28.6582256" lon="105.3909649"><ele>387.28</ele><time>2025-10-27T21:41:18.000Z</time></trkpt>
      </trkseg>
      <trkseg>
        <trkpt lat="28.6582665" lon="105.3908393"><ele>387.96</ele><time>2025-10-27T21:49:40.000Z</time></trkpt>
        <trkpt lat="28.6582665" lon="105.3908393"><ele>387.96</ele><time>2025-10-27T21:49:45.000Z</time></trkpt>
        <trkpt lat="28.6582591" lon="105.3909464"><ele>388.1</ele><time>2025-10-27T21:49:55.000Z</time></trkpt>
        <trkpt lat="28.6582268" lon="105.391023"><ele>385.61</ele><time>2025-10-27T21:50:01.000Z</time></trkpt>
        <trkpt lat="28.6581811" lon="105.3911101"><ele>384.98</ele><time>2025-10-27T21:50:17.000Z</time></trkpt>
        <trkpt lat="28.6581791" lon="105.3911999"><ele>382.7</ele><time>2025-10-27T21:50:28.000Z</time></trkpt>
        <trkpt lat="28.6582498" lon="105.3911721"><ele>380.41</ele><time>2025-10-27T21:50:34.000Z</time></trkpt>
        <trkpt lat="28.6583359" lon="105.3910837"><ele>379.93</ele><time>2025-10-27T21:50:38.000Z</time></trkpt>
        <trkpt lat="28.6584082" lon="105.3909759"><ele>380.19</ele><time>2025-10-27T21:50:44.000Z</time></trkpt>
        <trkpt lat="28.6585143" lon="105.3909359"><ele>383.59</ele><time>2025-10-27T21:50:54.000Z</time></trkpt>
        <trkpt lat="28.6586238" lon="105.3909886"><ele>386.2</ele><time>2025-10-27T21:50:58.000Z</time></trkpt>
        <trkpt lat="28.6587259" lon="105.3910119"><ele>386.92</ele><time>2025-10-27T21:51:02.000Z</time></trkpt>
        <trkpt lat="28.6587704" lon="105.390928"><ele>389.78</ele><time>2025-10-27T21:51:08.000Z</time></trkpt>
        <trkpt lat="28.6588475" lon="105.3908575"><ele>392</ele><time>2025-10-27T21:51:18.000Z</time></trkpt>
        <trkpt lat="28.6588477" lon="105.3908798"><ele>392.5</ele><time>2025-10-27T21:51:20.000Z</time></trkpt>
        <trkpt lat="28.6589097" lon="105.3908389"><ele>390.65</ele><time>2025-10-27T21:51:30.000Z</time></trkpt>
        <trkpt lat="28.6589814" lon="105.390768"><ele>390.87</ele><time>2025-10-27T21:51:38.000Z</time></trkpt>
        <trkpt lat="28.6590628" lon="105.3906769"><ele>392.01</ele><time>2025-10-27T21:51:46.000Z</time></trkpt>
        <trkpt lat="28.6591551" lon="105.3906444"><ele>391.13</ele><time>2025-10-27T21:51:50.000Z</time></trkpt>
        <trkpt lat="28.6592683" lon="105.3906495"><ele>390.53</ele><time>2025-10-27T21:51:58.000Z</time></trkpt>
        <trkpt lat="28.6593582" lon="105.3907245"><ele>389.68</ele><time>2025-10-27T21:52:08.000Z</time></trkpt>
        <trkpt lat="28.659464" lon="105.3907473"><ele>387.74</ele><time>2025-10-27T21:52:16.000Z</time></trkpt>
        <trkpt lat="28.6595858" lon="105.3907051"><ele>388.59</ele><time>2025-10-27T21:52:22.000Z</time></trkpt>
        <trkpt lat="28.659679" lon="105.3907354"><ele>388.96</ele><time>2025-10-27T21:52:28.000Z</time></trkpt>
        <trkpt lat="28.659771" lon="105.390764"><ele>390.18</ele><time>2025-10-27T21:52:36.000Z</time></trkpt>
        <trkpt lat="28.6598746" lon="105.3907876"><ele>390.46</ele><time>2025-10-27T21:52:42.000Z</time></trkpt>
        <trkpt lat="28.6599856" lon="105.3908034"><ele>389.55</ele><time>2025-10-27T21:52:50.000Z</time></trkpt>
        <trkpt lat="28.6600998" lon="105.3908259"><ele>387.54</ele><time>2025-10-27T21:52:56.000Z</time></trkpt>
        <trkpt lat="28.6601993" lon="105.3908487"><ele>386.83</ele><time>2025-10-27T21:53:02.000Z</time></trkpt>
        <trkpt lat="28.6603166" lon="105.3908558"><ele>386.12</ele><time>2025-10-27T21:53:08.000Z</time></trkpt>
        <trkpt lat="28.6604314" lon="105.3908702"><ele>385.89</ele><time>2025-10-27T21:53:14.000Z</time></trkpt>
        <trkpt lat="28.660531" lon="105.3908851"><ele>386.2</ele><time>2025-10-27T21:53:20.000Z</time></trkpt>
        <trkpt lat="28.6605889" lon="105.3909624"><ele>385.64</ele><time>2025-10-27T21:53:26.000Z</time></trkpt>
        <trkpt lat="28.6606089" lon="105.3910663"><ele>384.74</ele><time>2025-10-27T21:53:32.000Z</time></trkpt>
        <trkpt lat="28.6606881" lon="105.391134"><ele>382.69</ele><time>2025-10-27T21:53:38.000Z</time></trkpt>
        <trkpt lat="28.6607782" lon="105.3911395"><ele>381</ele><time>2025-10-27T21:53:44.000Z</time></trkpt>
        <trkpt lat="28.6608932" lon="105.3911272"><ele>380.26</ele><time>2025-10-27T21:53:50.000Z</time></trkpt>
        <trkpt lat="28.6610123" lon="105.3911538"><ele>380.55</ele><time>2025-10-27T21:53:56.000Z</time></trkpt>
        <trkpt lat="28.6611218" lon="105.391149"><ele>380.54</ele><time>2025-10-27T21:54:02.000Z</time></trkpt>
        <trkpt lat="28.6612186" lon="105.3911383"><ele>381.09</ele><time>2025-10-27T21:54:06.000Z</time></trkpt>
        <trkpt lat="28.6613212" lon="105.3911671"><ele>381.69</ele><time>2025-10-27T21:54:12.000Z</time></trkpt>
        <trkpt lat="28.6613869" lon="105.3912424"><ele>383.34</ele><time>2025-10-27T21:54:18.000Z</time></trkpt>
        <trkpt lat="28.6614797" lon="105.3912705"><ele>385.8</ele><time>2025-10-27T21:54:24.000Z</time></trkpt>
        <trkpt lat="28.6615131" lon="105.3913638"><ele>386.75</ele><time>2025-10-27T21:54:30.000Z</time></trkpt>
        <trkpt lat="28.6615203" lon="105.3914751"><ele>388.22</ele><time>2025-10-27T21:54:38.000Z</time></trkpt>
        <trkpt lat="28.6615158" lon="105.3915936"><ele>388.27</ele><time>2025-10-27T21:54:46.000Z</time></trkpt>
        <trkpt lat="28.6614839" lon="105.3917065"><ele>388.85</ele><time>2025-10-27T21:55:08.000Z</time></trkpt>
        <trkpt lat="28.6614429" lon="105.391818"><ele>388.83</ele><time>2025-10-27T21:55:16.000Z</time></trkpt>
        <trkpt lat="28.6614096" lon="105.3918957"><ele>387.8</ele><time>2025-10-27T21:55:22.000Z</time></trkpt>
        <trkpt lat="28.6613714" lon="105.3918381"><ele>387.3</ele><time>2025-10-27T21:55:30.000Z</time></trkpt>
        <trkpt lat="28.6614407" lon="105.3918115"><ele>385.79</ele><time>2025-10-27T21:55:36.000Z</time></trkpt>
        <trkpt lat="28.661518" lon="105.3918825"><ele>383.94</ele><time>2025-10-27T21:55:40.000Z</time></trkpt>
        <trkpt lat="28.6615078" lon="105.3920561"><ele>383.49</ele><time>2025-10-27T21:55:44.000Z</time></trkpt>
        <trkpt lat="28.6614199" lon="105.3921777"><ele>384.17</ele><time>2025-10-27T21:55:46.000Z</time></trkpt>
        <trkpt lat="28.6613264" lon="105.3922773"><ele>385.48</ele><time>2025-10-27T21:55:48.000Z</time></trkpt>
        <trkpt lat="28.6612474" lon="105.392362"><ele>386.85</ele><time>2025-10-27T21:55:50.000Z</time></trkpt>
        <trkpt lat="28.6611656" lon="105.3924757"><ele>386.98</ele><time>2025-10-27T21:55:54.000Z</time></trkpt>
        <trkpt lat="28.6610608" lon="105.392562"><ele>388.41</ele><time>2025-10-27T21:55:58.000Z</time></trkpt>
        <trkpt lat="28.6609865" lon="105.3926631"><ele>389.56</ele><time>2025-10-27T21:56:02.000Z</time></trkpt>
        <trkpt lat="28.6609903" lon="105.3927661"><ele>389.48</ele><time>2025-10-27T21:56:06.000Z</time></trkpt>
        <trkpt lat="28.6609705" lon="105.3928713"><ele>390.3</ele><time>2025-10-27T21:56:12.000Z</time></trkpt>
        <trkpt lat="28.6609441" lon="105.3930008"><ele>390.68</ele><time>2025-10-27T21:56:20.000Z</time></trkpt>
        <trkpt lat="28.6609138" lon="105.3931442"><ele>389.49</ele><time>2025-10-27T21:56:26.000Z</time></trkpt>
        <trkpt lat="28.6609184" lon="105.3932915"><ele>386.85</ele><time>2025-10-27T21:56:32.000Z</time></trkpt>
        <trkpt lat="28.6609287" lon="105.3934164"><ele>383.77</ele><time>2025-10-27T21:56:36.000Z</time></trkpt>
        <trkpt lat="28.660921" lon="105.3935519"><ele>381.57</ele><time>2025-10-27T21:56:42.000Z</time></trkpt>
        <trkpt lat="28.6608901" lon="105.3936579"><ele>379.93</ele><time>2025-10-27T21:56:52.000Z</time></trkpt>
        <trkpt lat="28.6608385" lon="105.3937608"><ele>379.55</ele><time>2025-10-27T21:57:02.000Z</time></trkpt>
        <trkpt lat="28.660776" lon="105.3938629"><ele>379.02</ele><time>2025-10-27T21:57:10.000Z</time></trkpt>
        <trkpt lat="28.6607163" lon="105.3939506"><ele>378.38</ele><time>2025-10-27T21:57:18.000Z</time></trkpt>
        <trkpt lat="28.6607084" lon="105.3940528"><ele>377.44</ele><time>2025-10-27T21:57:30.000Z</time></trkpt>
        <trkpt lat="28.6607001" lon="105.3941553"><ele>379.78</ele><time>2025-10-27T21:57:52.000Z</time></trkpt>
        <trkpt lat="28.6607289" lon="105.3942584"><ele>382.91</ele><time>2025-10-27T21:58:06.000Z</time></trkpt>
        <trkpt lat="28.6607316" lon="105.3943857"><ele>386.84</ele><time>2025-10-27T21:58:14.000Z</time></trkpt>
        <trkpt lat="28.6607134" lon="105.3944952"><ele>389.7</ele><time>2025-10-27T21:58:20.000Z</time></trkpt>
        <trkpt lat="28.6607272" lon="105.3946029"><ele>391.05</ele><time>2025-10-27T21:58:26.000Z</time></trkpt>
        <trkpt lat="28.6607597" lon="105.3947036"><ele>391.49</ele><time>2025-10-27T21:58:32.000Z</time></trkpt>
        <trkpt lat="28.6607852" lon="105.3948041"><ele>391.91</ele><time>2025-10-27T21:58:36.000Z</time></trkpt>
        <trkpt lat="28.6608192" lon="105.3949113"><ele>392.99</ele><time>2025-10-27T21:58:42.000Z</time></trkpt>
        <trkpt lat="28.6608772" lon="105.3950135"><ele>394.72</ele><time>2025-10-27T21:58:50.000Z</time></trkpt>
        <trkpt lat="28.6609663" lon="105.3950299"><ele>395.39</ele><time>2025-10-27T21:58:56.000Z</time></trkpt>
        <trkpt lat="28.6610218" lon="105.3951079"><ele>393.4</ele><time>2025-10-27T21:59:04.000Z</time></trkpt>
        <trkpt lat="28.6610651" lon="105.3952241"><ele>391.54</ele><time>2025-10-27T21:59:12.000Z</time></trkpt>
        <trkpt lat="28.6610907" lon="105.3953451"><ele>388.09</ele><time>2025-10-27T21:59:18.000Z</time></trkpt>
        <trkpt lat="28.6611639" lon="105.3953962"><ele>385.09</ele><time>2025-10-27T21:59:24.000Z</time></trkpt>
        <trkpt lat="28.6612644" lon="105.3954137"><ele>383.95</ele><time>2025-10-27T21:59:30.000Z</time></trkpt>
        <trkpt lat="28.661384" lon="105.3954107"><ele>384.18</ele><time>2025-10-27T21:59:34.000Z</time></trkpt>
        <trkpt lat="28.6614873" lon="105.3954543"><ele>384.93</ele><time>2025-10-27T21:59:44.000Z</time></trkpt>
        <trkpt lat="28.661571" lon="105.3955336"><ele>384.68</ele><time>2025-10-27T21:59:52.000Z</time></trkpt>
        <trkpt lat="28.6616391" lon="105.3956147"><ele>384.96</ele><time>2025-10-27T21:59:58.000Z</time></trkpt>
        <trkpt lat="28.6617041" lon="105.3956974"><ele>384.68</ele><time>2025-10-27T22:00:04.000Z</time></trkpt>
        <trkpt lat="28.6617714" lon="105.3957889"><ele>383.92</ele><time>2025-10-27T22:00:12.000Z</time></trkpt>
        <trkpt lat="28.6617749" lon="105.3959104"><ele>382.54</ele><time>2025-10-27T22:00:20.000Z</time></trkpt>
        <trkpt lat="28.6617404" lon="105.3960442"><ele>380.64</ele><time>2025-10-27T22:00:28.000Z</time></trkpt>
        <trkpt lat="28.6617712" lon="105.3961694"><ele>378.26</ele><time>2025-10-27T22:00:34.000Z</time></trkpt>
        <trkpt lat="28.6618204" lon="105.3962908"><ele>378.18</ele><time>2025-10-27T22:00:40.000Z</time></trkpt>
        <trkpt lat="28.6618071" lon="105.3963977"><ele>379.14</ele><time>2025-10-27T22:00:46.000Z</time></trkpt>
        <trkpt lat="28.6617405" lon="105.3964936"><ele>381.61</ele><time>2025-10-27T22:00:52.000Z</time></trkpt>
        <trkpt lat="28.6616487" lon="105.3965716"><ele>385.04</ele><time>2025-10-27T22:00:58.000Z</time></trkpt>
        <trkpt lat="28.6615444" lon="105.3966136"><ele>389.35</ele><time>2025-10-27T22:01:06.000Z</time></trkpt>
        <trkpt lat="28.6614404" lon="105.3966349"><ele>393.55</ele><time>2025-10-27T22:01:12.000Z</time></trkpt>
        <trkpt lat="28.6613311" lon="105.3966725"><ele>395.69</ele><time>2025-10-27T22:01:20.000Z</time></trkpt>
        <trkpt lat="28.6612281" lon="105.3967536"><ele>396.45</ele><time>2025-10-27T22:01:28.000Z</time></trkpt>
        <trkpt lat="28.6611173" lon="105.3967533"><ele>398.44</ele><time>2025-10-27T22:01:36.000Z</time></trkpt>
        <trkpt lat="28.6610098" lon="105.3967238"><ele>399.57</ele><time>2025-10-27T22:01:44.000Z</time></trkpt>
        <trkpt lat="28.6609683" lon="105.3967977"><ele>400.37</ele><time>2025-10-27T22:01:50.000Z</time></trkpt>
        <trkpt lat="28.6609115" lon="105.3968892"><ele>398.74</ele><time>2025-10-27T22:01:52.000Z</time></trkpt>
        <trkpt lat="28.6609051" lon="105.3970029"><ele>401.9</ele><time>2025-10-27T22:01:56.000Z</time></trkpt>
        <trkpt lat="28.6609669" lon="105.397099"><ele>403.74</ele><time>2025-10-27T22:02:02.000Z</time></trkpt>
        <trkpt lat="28.66107" lon="105.3971528"><ele>403.96</ele><time>2025-10-27T22:02:06.000Z</time></trkpt>
        <trkpt lat="28.6611777" lon="105.3971982"><ele>402.67</ele><time>2025-10-27T22:02:10.000Z</time></trkpt>
        <trkpt lat="28.6612761" lon="105.3972452"><ele>401.18</ele><time>2025-10-27T22:02:14.000Z</time></trkpt>
        <trkpt lat="28.6613599" lon="105.3973034"><ele>399.63</ele><time>2025-10-27T22:02:18.000Z</time></trkpt>
        <trkpt lat="28.6614536" lon="105.3972816"><ele>397.9</ele><time>2025-10-27T22:02:22.000Z</time></trkpt>
        <trkpt lat="28.6615582" lon="105.3972643"><ele>396.22</ele><time>2025-10-27T22:02:26.000Z</time></trkpt>
        <trkpt lat="28.6616427" lon="105.3973006"><ele>395.15</ele><time>2025-10-27T22:02:30.000Z</time></trkpt>
        <trkpt lat="28.6617317" lon="105.3973556"><ele>394.8</ele><time>2025-10-27T22:02:36.000Z</time></trkpt>
        <trkpt lat="28.6618174" lon="105.3974505"><ele>393.69</ele><time>2025-10-27T22:02:42.000Z</time></trkpt>
        <trkpt lat="28.6618551" lon="105.397574"><ele>390.94</ele><time>2025-10-27T22:02:48.000Z</time></trkpt>
        <trkpt lat="28.661869" lon="105.3977125"><ele>388.12</ele><time>2025-10-27T22:02:54.000Z</time></trkpt>
        <trkpt lat="28.6618708" lon="105.3978391"><ele>384.09</ele><time>2025-10-27T22:02:58.000Z</time></trkpt>
        <trkpt lat="28.6618701" lon="105.3979522"><ele>382.07</ele><time>2025-10-27T22:03:02.000Z</time></trkpt>
        <trkpt lat="28.6618979" lon="105.3980728"><ele>380.24</ele><time>2025-10-27T22:03:08.000Z</time></trkpt>
        <trkpt lat="28.6619816" lon="105.3981578"><ele>378.78</ele><time>2025-10-27T22:03:14.000Z</time></trkpt>
        <trkpt lat="28.6620342" lon="105.3982523"><ele>376.57</ele><time>2025-10-27T22:03:18.000Z</time></trkpt>
        <trkpt lat="28.6620444" lon="105.3983612"><ele>375.02</ele><time>2025-10-27T22:03:22.000Z</time></trkpt>
        <trkpt lat="28.6620285" lon="105.3984752"><ele>373.6</ele><time>2025-10-27T22:03:26.000Z</time></trkpt>
        <trkpt lat="28.6620227" lon="105.398586"><ele>372.16</ele><time>2025-10-27T22:03:30.000Z</time></trkpt>
        <trkpt lat="28.6619869" lon="105.3986932"><ele>371.35</ele><time>2025-10-27T22:03:34.000Z</time></trkpt>
        <trkpt lat="28.6619823" lon="105.3988028"><ele>371.08</ele><time>2025-10-27T22:03:42.000Z</time></trkpt>
        <trkpt lat="28.662032" lon="105.3989074"><ele>370.07</ele><time>2025-10-27T22:03:48.000Z</time></trkpt>
        <trkpt lat="28.6620878" lon="105.3990173"><ele>368.67</ele><time>2025-10-27T22:03:54.000Z</time></trkpt>
        <trkpt lat="28.6621951" lon="105.3990667"><ele>367.79</ele><time>2025-10-27T22:04:02.000Z</time></trkpt>
        <trkpt lat="28.6622668" lon="105.3989937"><ele>366.02</ele><time>2025-10-27T22:04:06.000Z</time></trkpt>
        <trkpt lat="28.6623599" lon="105.3989625"><ele>364.89</ele><time>2025-10-27T22:04:12.000Z</time></trkpt>
        <trkpt lat="28.6624348" lon="105.398897"><ele>363.53</ele><time>2025-10-27T22:04:46.000Z</time></trkpt>
        <trkpt lat="28.6624159" lon="105.3987757"><ele>357.01</ele><time>2025-10-27T22:04:50.000Z</time></trkpt>
        <trkpt lat="28.6623837" lon="105.3986489"><ele>356.81</ele><time>2025-10-27T22:04:54.000Z</time></trkpt>
        <trkpt lat="28.662369" lon="105.3985931"><ele>356.71</ele><time>2025-10-27T22:04:58.000Z</time></trkpt>
        <trkpt lat="28.6623717" lon="105.3985053"><ele>355.95</ele><time>2025-10-27T22:05:12.000Z</time></trkpt>
        <trkpt lat="28.6624052" lon="105.3984309"><ele>355.58</ele><time>2025-10-27T22:05:20.000Z</time></trkpt>
        <trkpt lat="28.6624586" lon="105.3984777"><ele>354.32</ele><time>2025-10-27T22:05:36.000Z</time></trkpt>
        <trkpt lat="28.6625554" lon="105.398521"><ele>352.16</ele><time>2025-10-27T22:05:44.000Z</time></trkpt>
        <trkpt lat="28.6626269" lon="105.3986233"><ele>353.14</ele><time>2025-10-27T22:05:48.000Z</time></trkpt>
        <trkpt lat="28.6627163" lon="105.3986042"><ele>352.33</ele><time>2025-10-27T22:05:56.000Z</time></trkpt>
        <trkpt lat="28.6627938" lon="105.3985238"><ele>351.91</ele><time>2025-10-27T22:06:04.000Z</time></trkpt>
        <trkpt lat="28.6628331" lon="105.39841"><ele>349.77</ele><time>2025-10-27T22:06:10.000Z</time></trkpt>
        <trkpt lat="28.6629096" lon="105.39834"><ele>348.39</ele><time>2025-10-27T22:06:22.000Z</time></trkpt>
        <trkpt lat="28.6629478" lon="105.398347"><ele>344.8</ele><time>2025-10-27T22:06:28.000Z</time></trkpt>
        <trkpt lat="28.6629738" lon="105.3982808"><ele>340.54</ele><time>2025-10-27T22:06:34.000Z</time></trkpt>
        <trkpt lat="28.6629127" lon="105.3982021"><ele>337.27</ele><time>2025-10-27T22:06:44.000Z</time></trkpt>
        <trkpt lat="28.6628304" lon="105.3981035"><ele>332.33</ele><time>2025-10-27T22:06:50.000Z</time></trkpt>
        <trkpt lat="28.6627598" lon="105.3981592"><ele>327.14</ele><time>2025-10-27T22:07:00.000Z</time></trkpt>
        <trkpt lat="28.6626741" lon="105.3982303"><ele>325.51</ele><time>2025-10-27T22:07:08.000Z</time></trkpt>
        <trkpt lat="28.6626238" lon="105.3982745"><ele>325.4</ele><time>2025-10-27T22:07:20.000Z</time></trkpt>
        <trkpt lat="28.6626268" lon="105.398178"><ele>321.68</ele><time>2025-10-27T22:08:23.000Z</time></trkpt>
        <trkpt lat="28.6627259" lon="105.3981173"><ele>318.15</ele><time>2025-10-27T22:09:01.000Z</time></trkpt>
        <trkpt lat="28.6628263" lon="105.3981173"><ele>316.32</ele><time>2025-10-27T22:09:07.000Z</time></trkpt>
        <trkpt lat="28.6628681" lon="105.3982023"><ele>314.66</ele><time>2025-10-27T22:09:13.000Z</time></trkpt>
        <trkpt lat="28.6628822" lon="105.39825"><ele>314.37</ele><time>2025-10-27T22:09:15.000Z</time></trkpt>
        <trkpt lat="28.6628397" lon="105.398182"><ele>313.12</ele><time>2025-10-27T22:09:33.000Z</time></trkpt>
        <trkpt lat="28.6628756" lon="105.3980682"><ele>311.58</ele><time>2025-10-27T22:09:39.000Z</time></trkpt>
        <trkpt lat="28.6629496" lon="105.3979678"><ele>308.45</ele><time>2025-10-27T22:09:43.000Z</time></trkpt>
        <trkpt lat="28.6630445" lon="105.3978831"><ele>307.1</ele><time>2025-10-27T22:09:47.000Z</time></trkpt>
        <trkpt lat="28.663083" lon="105.3978323"><ele>307.74</ele><time>2025-10-27T22:09:53.000Z</time></trkpt>
        <trkpt lat="28.6630325" lon="105.3977794"><ele>309.64</ele><time>2025-10-27T22:10:07.000Z</time></trkpt>
        <trkpt lat="28.6630348" lon="105.3976958"><ele>309.33</ele><time>2025-10-27T22:10:11.000Z</time></trkpt>
        <trkpt lat="28.6630695" lon="105.3975943"><ele>308.47</ele><time>2025-10-27T22:10:15.000Z</time></trkpt>
        <trkpt lat="28.6631069" lon="105.3974848"><ele>307.65</ele><time>2025-10-27T22:10:19.000Z</time></trkpt>
        <trkpt lat="28.6631438" lon="105.397365"><ele>306.46</ele><time>2025-10-27T22:10:23.000Z</time></trkpt>
        <trkpt lat="28.663165" lon="105.397236"><ele>306.42</ele><time>2025-10-27T22:10:27.000Z</time></trkpt>
        <trkpt lat="28.6631457" lon="105.3971072"><ele>308.24</ele><time>2025-10-27T22:10:31.000Z</time></trkpt>
        <trkpt lat="28.663105" lon="105.3969916"><ele>310.19</ele><time>2025-10-27T22:10:35.000Z</time></trkpt>
        <trkpt lat="28.6630888" lon="105.3968628"><ele>310.92</ele><time>2025-10-27T22:10:39.000Z</time></trkpt>
        <trkpt lat="28.6630806" lon="105.3967361"><ele>310.79</ele><time>2025-10-27T22:10:43.000Z</time></trkpt>
        <trkpt lat="28.6630298" lon="105.3966196"><ele>311.38</ele><time>2025-10-27T22:10:47.000Z</time></trkpt>
        <trkpt lat="28.662976" lon="105.3965079"><ele>311.74</ele><time>2025-10-27T22:10:51.000Z</time></trkpt>
        <trkpt lat="28.6629211" lon="105.3964069"><ele>310.45</ele><time>2025-10-27T22:10:55.000Z</time></trkpt>
        <trkpt lat="28.6629286" lon="105.3962859"><ele>309.1</ele><time>2025-10-27T22:11:01.000Z</time></trkpt>
        <trkpt lat="28.6628504" lon="105.3961994"><ele>308.05</ele><time>2025-10-27T22:11:09.000Z</time></trkpt>
        <trkpt lat="28.6627682" lon="105.3961129"><ele>306.24</ele><time>2025-10-27T22:11:13.000Z</time></trkpt>
        <trkpt lat="28.6626829" lon="105.3960348"><ele>304.72</ele><time>2025-10-27T22:11:19.000Z</time></trkpt>
        <trkpt lat="28.6626161" lon="105.395904"><ele>302.25</ele><time>2025-10-27T22:11:27.000Z</time></trkpt>
        <trkpt lat="28.6626063" lon="105.3957827"><ele>300.5</ele><time>2025-10-27T22:11:39.000Z</time></trkpt>
        <trkpt lat="28.662551" lon="105.3956532"><ele>299.19</ele><time>2025-10-27T22:11:43.000Z</time></trkpt>
        <trkpt lat="28.6624719" lon="105.3955491"><ele>298.84</ele><time>2025-10-27T22:11:47.000Z</time></trkpt>
        <trkpt lat="28.6624055" lon="105.3954402"><ele>298.13</ele><time>2025-10-27T22:11:51.000Z</time></trkpt>
        <trkpt lat="28.6623522" lon="105.3953242"><ele>296.93</ele><time>2025-10-27T22:11:55.000Z</time></trkpt>
        <trkpt lat="28.662282" lon="105.3952249"><ele>295.72</ele><time>2025-10-27T22:11:59.000Z</time></trkpt>
        <trkpt lat="28.662193" lon="105.3951575"><ele>295.6</ele><time>2025-10-27T22:12:03.000Z</time></trkpt>
        <trkpt lat="28.6621191" lon="105.3950747"><ele>295.56</ele><time>2025-10-27T22:12:07.000Z</time></trkpt>
        <trkpt lat="28.6620674" lon="105.3949828"><ele>295.12</ele><time>2025-10-27T22:12:11.000Z</time></trkpt>
        <trkpt lat="28.6619951" lon="105.3949021"><ele>295.1</ele><time>2025-10-27T22:12:15.000Z</time></trkpt>
        <trkpt lat="28.6619339" lon="105.3948014"><ele>294.44</ele><time>2025-10-27T22:12:19.000Z</time></trkpt>
        <trkpt lat="28.6618832" lon="105.3946913"><ele>294.13</ele><time>2025-10-27T22:12:23.000Z</time></trkpt>
        <trkpt lat="28.6618393" lon="105.3945732"><ele>293.65</ele><time>2025-10-27T22:12:27.000Z</time></trkpt>
        <trkpt lat="28.6618124" lon="105.3944483"><ele>292.19</ele><time>2025-10-27T22:12:31.000Z</time></trkpt>
        <trkpt lat="28.6617918" lon="105.3942994"><ele>289.76</ele><time>2025-10-27T22:12:35.000Z</time></trkpt>
        <trkpt lat="28.6617617" lon="105.3941506"><ele>288.07</ele><time>2025-10-27T22:12:39.000Z</time></trkpt>
        <trkpt lat="28.6617169" lon="105.3940082"><ele>287.16</ele><time>2025-10-27T22:12:43.000Z</time></trkpt>
        <trkpt lat="28.6616731" lon="105.3938702"><ele>286.03</ele><time>2025-10-27T22:12:47.000Z</time></trkpt>
        <trkpt lat="28.6616563" lon="105.3937421"><ele>284.11</ele><time>2025-10-27T22:12:51.000Z</time></trkpt>
        <trkpt lat="28.661703" lon="105.3936168"><ele>283.08</ele><time>2025-10-27T22:12:55.000Z</time></trkpt>
        <trkpt lat="28.6617442" lon="105.3934965"><ele>282.78</ele><time>2025-10-27T22:12:59.000Z</time></trkpt>
        <trkpt lat="28.6617614" lon="105.3933882"><ele>283.39</ele><time>2025-10-27T22:13:03.000Z</time></trkpt>
        <trkpt lat="28.6618061" lon="105.3933356"><ele>284.06</ele><time>2025-10-27T22:13:11.000Z</time></trkpt>
        <trkpt lat="28.6617613" lon="105.3932853"><ele>284.48</ele><time>2025-10-27T22:13:19.000Z</time></trkpt>
        <trkpt lat="28.6617692" lon="105.3931721"><ele>285.16</ele><time>2025-10-27T22:13:25.000Z</time></trkpt>
        <trkpt lat="28.6618083" lon="105.3930708"><ele>283.73</ele><time>2025-10-27T22:13:29.000Z</time></trkpt>
        <trkpt lat="28.6618631" lon="105.3929693"><ele>282.7</ele><time>2025-10-27T22:13:33.000Z</time></trkpt>
        <trkpt lat="28.6619055" lon="105.3928609"><ele>282.22</ele><time>2025-10-27T22:13:37.000Z</time></trkpt>
        <trkpt lat="28.6619223" lon="105.3927493"><ele>281.85</ele><time>2025-10-27T22:13:43.000Z</time></trkpt>
        <trkpt lat="28.6618818" lon="105.3926461"><ele>282.07</ele><time>2025-10-27T22:13:53.000Z</time></trkpt>
        <trkpt lat="28.6618962" lon="105.39263"><ele>282.87</ele><time>2025-10-27T22:13:57.000Z</time></trkpt>
        <trkpt lat="28.6619246" lon="105.3925579"><ele>284.18</ele><time>2025-10-27T22:14:19.000Z</time></trkpt>
        <trkpt lat="28.661986" lon="105.3924951"><ele>283.99</ele><time>2025-10-27T22:14:27.000Z</time></trkpt>
        <trkpt lat="28.6620839" lon="105.3924623"><ele>281.92</ele><time>2025-10-27T22:14:35.000Z</time></trkpt>
        <trkpt lat="28.6621409" lon="105.3924138"><ele>282.67</ele><time>2025-10-27T22:14:43.000Z</time></trkpt>
        <trkpt lat="28.6620813" lon="105.3924052"><ele>282.78</ele><time>2025-10-27T22:14:55.000Z</time></trkpt>
        <trkpt lat="28.662101" lon="105.392333"><ele>279.21</ele><time>2025-10-27T22:15:07.000Z</time></trkpt>
        <trkpt lat="28.6621851" lon="105.3922622"><ele>275.45</ele><time>2025-10-27T22:15:11.000Z</time></trkpt>
        <trkpt lat="28.662237" lon="105.3921635"><ele>273.81</ele><time>2025-10-27T22:15:15.000Z</time></trkpt>
        <trkpt lat="28.6622639" lon="105.3920367"><ele>273</ele><time>2025-10-27T22:15:21.000Z</time></trkpt>
        <trkpt lat="28.6623001" lon="105.3919221"><ele>269.58</ele><time>2025-10-27T22:15:27.000Z</time></trkpt>
        <trkpt lat="28.6623109" lon="105.3919047"><ele>268.42</ele><time>2025-10-27T22:15:29.000Z</time></trkpt>
        <trkpt lat="28.6623281" lon="105.391822"><ele>267.87</ele><time>2025-10-27T22:16:25.000Z</time></trkpt>
        <trkpt lat="28.6623294" lon="105.3916638"><ele>266.83</ele><time>2025-10-27T22:16:31.000Z</time></trkpt>
        <trkpt lat="28.662341" lon="105.3915357"><ele>263.64</ele><time>2025-10-27T22:16:35.000Z</time></trkpt>
        <trkpt lat="28.6623496" lon="105.3914249"><ele>261.58</ele><time>2025-10-27T22:16:39.000Z</time></trkpt>
        <trkpt lat="28.6623649" lon="105.391322"><ele>261.16</ele><time>2025-10-27T22:16:43.000Z</time></trkpt>
        <trkpt lat="28.6623912" lon="105.391199"><ele>260.04</ele><time>2025-10-27T22:16:49.000Z</time></trkpt>
        <trkpt lat="28.6623894" lon="105.3910835"><ele>258.24</ele><time>2025-10-27T22:16:53.000Z</time></trkpt>
        <trkpt lat="28.6623878" lon="105.3909541"><ele>256.68</ele><time>2025-10-27T22:16:59.000Z</time></trkpt>
        <trkpt lat="28.6623768" lon="105.3908231"><ele>256.42</ele><time>2025-10-27T22:17:07.000Z</time></trkpt>
        <trkpt lat="28.6623888" lon="105.3907147"><ele>256.12</ele><time>2025-10-27T22:17:13.000Z</time></trkpt>
        <trkpt lat="28.6623945" lon="105.3906054"><ele>254.5</ele><time>2025-10-27T22:17:17.000Z</time></trkpt>
        <trkpt lat="28.6623903" lon="105.3904746"><ele>253.41</ele><time>2025-10-27T22:17:24.000Z</time></trkpt>
        <trkpt lat="28.6623678" lon="105.390353"><ele>253.68</ele><time>2025-10-27T22:17:31.000Z</time></trkpt>
        <trkpt lat="28.6623779" lon="105.3902718"><ele>253.05</ele><time>2025-10-27T22:17:44.000Z</time></trkpt>
        <trkpt lat="28.6623151" lon="105.3902102"><ele>254.05</ele><time>2025-10-27T22:18:02.000Z</time></trkpt>
        <trkpt lat="28.6622575" lon="105.3901117"><ele>253.15</ele><time>2025-10-27T22:18:10.000Z</time></trkpt>
        <trkpt lat="28.6621624" lon="105.3900658"><ele>250.67</ele><time>2025-10-27T22:18:18.000Z</time></trkpt>
        <trkpt lat="28.662055" lon="105.3900494"><ele>247.96</ele><time>2025-10-27T22:18:24.000Z</time></trkpt>
        <trkpt lat="28.6619722" lon="105.3899426"><ele>245.82</ele><time>2025-10-27T22:18:30.000Z</time></trkpt>
        <trkpt lat="28.6618909" lon="105.3898562"><ele>244.94</ele><time>2025-10-27T22:18:36.000Z</time></trkpt>
        <trkpt lat="28.6618097" lon="105.3897834"><ele>243.26</ele><time>2025-10-27T22:18:58.000Z</time></trkpt>
        <trkpt lat="28.6617821" lon="105.3896709"><ele>240.08</ele><time>2025-10-27T22:19:04.000Z</time></trkpt>
        <trkpt lat="28.6617747" lon="105.3896182"><ele>238.28</ele><time>2025-10-27T22:19:12.000Z</time></trkpt>
        <trkpt lat="28.6617976" lon="105.3895278"><ele>237.71</ele><time>2025-10-27T22:19:24.000Z</time></trkpt>
        <trkpt lat="28.6618877" lon="105.389501"><ele>239.19</ele><time>2025-10-27T22:19:28.000Z</time></trkpt>
        <trkpt lat="28.6620058" lon="105.3894757"><ele>239.89</ele><time>2025-10-27T22:19:38.000Z</time></trkpt>
        <trkpt lat="28.6621297" lon="105.3894766"><ele>239.82</ele><time>2025-10-27T22:19:44.000Z</time></trkpt>
        <trkpt lat="28.6622479" lon="105.3894814"><ele>238.31</ele><time>2025-10-27T22:19:52.000Z</time></trkpt>
        <trkpt lat="28.6623104" lon="105.389411"><ele>238.39</ele><time>2025-10-27T22:20:02.000Z</time></trkpt>
        <trkpt lat="28.6623639" lon="105.3893152"><ele>237.07</ele><time>2025-10-27T22:20:08.000Z</time></trkpt>
        <trkpt lat="28.6624251" lon="105.389222"><ele>235.72</ele><time>2025-10-27T22:20:14.000Z</time></trkpt>
        <trkpt lat="28.66251" lon="105.3891429"><ele>234.69</ele><time>2025-10-27T22:20:26.000Z</time></trkpt>
        <trkpt lat="28.66257" lon="105.3890481"><ele>236.49</ele><time>2025-10-27T22:20:32.000Z</time></trkpt>
        <trkpt lat="28.6626261" lon="105.3889586"><ele>237.45</ele><time>2025-10-27T22:20:38.000Z</time></trkpt>
        <trkpt lat="28.6627005" lon="105.3888715"><ele>238.09</ele><time>2025-10-27T22:20:46.000Z</time></trkpt>
        <trkpt lat="28.662726" lon="105.3887642"><ele>237.76</ele><time>2025-10-27T22:20:52.000Z</time></trkpt>
        <trkpt lat="28.6627331" lon="105.3886338"><ele>237.23</ele><time>2025-10-27T22:21:00.000Z</time></trkpt>
        <trkpt lat="28.6627514" lon="105.3884968"><ele>234.51</ele><time>2025-10-27T22:21:04.000Z</time></trkpt>
        <trkpt lat="28.6627475" lon="105.3883715"><ele>232.04</ele><time>2025-10-27T22:21:08.000Z</time></trkpt>
        <trkpt lat="28.662768" lon="105.388267"><ele>229.35</ele><time>2025-10-27T22:21:12.000Z</time></trkpt>
        <trkpt lat="28.6628225" lon="105.3881524"><ele>230.05</ele><time>2025-10-27T22:21:18.000Z</time></trkpt>
        <trkpt lat="28.6628569" lon="105.3880421"><ele>231.07</ele><time>2025-10-27T22:21:24.000Z</time></trkpt>
        <trkpt lat="28.6628953" lon="105.3879154"><ele>231.54</ele><time>2025-10-27T22:21:32.000Z</time></trkpt>
        <trkpt lat="28.6629302" lon="105.3878092"><ele>232.86</ele><time>2025-10-27T22:21:42.000Z</time></trkpt>
        <trkpt lat="28.6629528" lon="105.3877004"><ele>231.82</ele><time>2025-10-27T22:21:50.000Z</time></trkpt>
        <trkpt lat="28.6629655" lon="105.3875855"><ele>231.13</ele><time>2025-10-27T22:21:56.000Z</time></trkpt>
        <trkpt lat="28.662973" lon="105.3874713"><ele>230.88</ele><time>2025-10-27T22:22:02.000Z</time></trkpt>
        <trkpt lat="28.6629744" lon="105.3873609"><ele>230.52</ele><time>2025-10-27T22:22:08.000Z</time></trkpt>
        <trkpt lat="28.6629709" lon="105.3872356"><ele>231.91</ele><time>2025-10-27T22:22:14.000Z</time></trkpt>
        <trkpt lat="28.6629688" lon="105.3871191"><ele>231.97</ele><time>2025-10-27T22:22:20.000Z</time></trkpt>
        <trkpt lat="28.6629832" lon="105.3869981"><ele>233.09</ele><time>2025-10-27T22:22:28.000Z</time></trkpt>
        <trkpt lat="28.6629969" lon="105.3868809"><ele>234.33</ele><time>2025-10-27T22:22:36.000Z</time></trkpt>
        <trkpt lat="28.6629925" lon="105.3867533"><ele>234.19</ele><time>2025-10-27T22:22:44.000Z</time></trkpt>
        <trkpt lat="28.6630078" lon="105.3866173"><ele>232.58</ele><time>2025-10-27T22:22:52.000Z</time></trkpt>
        <trkpt lat="28.6630396" lon="105.3865108"><ele>232.17</ele><time>2025-10-27T22:22:58.000Z</time></trkpt>
        <trkpt lat="28.6630585" lon="105.3863997"><ele>232.36</ele><time>2025-10-27T22:23:06.000Z</time></trkpt>
        <trkpt lat="28.6630525" lon="105.3862713"><ele>232.59</ele><time>2025-10-27T22:23:14.000Z</time></trkpt>
        <trkpt lat="28.6630388" lon="105.3861408"><ele>232.83</ele><time>2025-10-27T22:23:22.000Z</time></trkpt>
        <trkpt lat="28.6630152" lon="105.3860142"><ele>231.51</ele><time>2025-10-27T22:23:30.000Z</time></trkpt>
        <trkpt lat="28.6629566" lon="105.3859062"><ele>231.91</ele><time>2025-10-27T22:23:38.000Z</time></trkpt>
        <trkpt lat="28.6628953" lon="105.3858011"><ele>231.92</ele><time>2025-10-27T22:23:46.000Z</time></trkpt>
        <trkpt lat="28.6628477" lon="105.3856833"><ele>232.83</ele><time>2025-10-27T22:23:54.000Z</time></trkpt>
        <trkpt lat="28.6628133" lon="105.3855758"><ele>232.1</ele><time>2025-10-27T22:24:00.000Z</time></trkpt>
        <trkpt lat="28.6627832" lon="105.3854732"><ele>231.73</ele><time>2025-10-27T22:24:06.000Z</time></trkpt>
        <trkpt lat="28.6627679" lon="105.3853721"><ele>232.46</ele><time>2025-10-27T22:24:12.000Z</time></trkpt>
        <trkpt lat="28.6627489" lon="105.3852716"><ele>233.6</ele><time>2025-10-27T22:24:18.000Z</time></trkpt>
        <trkpt lat="28.6627168" lon="105.3851761"><ele>234</ele><time>2025-10-27T22:24:24.000Z</time></trkpt>
        <trkpt lat="28.6626987" lon="105.3850747"><ele>233.69</ele><time>2025-10-27T22:24:30.000Z</time></trkpt>
        <trkpt lat="28.6626642" lon="105.384959"><ele>233.63</ele><time>2025-10-27T22:24:38.000Z</time></trkpt>
        <trkpt lat="28.6626479" lon="105.3848346"><ele>232.64</ele><time>2025-10-27T22:24:46.000Z</time></trkpt>
        <trkpt lat="28.662667" lon="105.3847259"><ele>232.94</ele><time>2025-10-27T22:24:56.000Z</time></trkpt>
        <trkpt lat="28.6627636" lon="105.3846819"><ele>231.8</ele><time>2025-10-27T22:25:04.000Z</time></trkpt>
        <trkpt lat="28.6628688" lon="105.3846283"><ele>231.27</ele><time>2025-10-27T22:25:14.000Z</time></trkpt>
        <trkpt lat="28.6628997" lon="105.3845316"><ele>229.38</ele><time>2025-10-27T22:25:20.000Z</time></trkpt>
        <trkpt lat="28.6629289" lon="105.3844144"><ele>227.5</ele><time>2025-10-27T22:25:26.000Z</time></trkpt>
        <trkpt lat="28.6629617" lon="105.3842981"><ele>224.72</ele><time>2025-10-27T22:25:32.000Z</time></trkpt>
        <trkpt lat="28.6629753" lon="105.3841822"><ele>224.44</ele><time>2025-10-27T22:25:38.000Z</time></trkpt>
        <trkpt lat="28.6629973" lon="105.3840676"><ele>222.25</ele><time>2025-10-27T22:25:46.000Z</time></trkpt>
        <trkpt lat="28.6630113" lon="105.3839506"><ele>220.52</ele><time>2025-10-27T22:25:52.000Z</time></trkpt>
        <trkpt lat="28.6630671" lon="105.3838368"><ele>218.52</ele><time>2025-10-27T22:26:04.000Z</time></trkpt>
        <trkpt lat="28.6630667" lon="105.3837288"><ele>217.19</ele><time>2025-10-27T22:26:08.000Z</time></trkpt>
        <trkpt lat="28.6630338" lon="105.3836038"><ele>218.38</ele><time>2025-10-27T22:26:14.000Z</time></trkpt>
        <trkpt lat="28.6630114" lon="105.3834648"><ele>219.08</ele><time>2025-10-27T22:26:22.000Z</time></trkpt>
        <trkpt lat="28.6630223" lon="105.3833366"><ele>219.1</ele><time>2025-10-27T22:26:28.000Z</time></trkpt>
        <trkpt lat="28.6630217" lon="105.3832129"><ele>219.01</ele><time>2025-10-27T22:26:36.000Z</time></trkpt>
        <trkpt lat="28.6630185" lon="105.3831578"><ele>220.31</ele><time>2025-10-27T22:26:40.000Z</time></trkpt>
        <trkpt lat="28.6629525" lon="105.3831142"><ele>220.26</ele><time>2025-10-27T22:26:50.000Z</time></trkpt>
        <trkpt lat="28.6630001" lon="105.3831182"><ele>219.23</ele><time>2025-10-27T22:26:56.000Z</time></trkpt>
        <trkpt lat="28.6630893" lon="105.3830884"><ele>217.86</ele><time>2025-10-27T22:27:00.000Z</time></trkpt>
        <trkpt lat="28.6631813" lon="105.3830212"><ele>217.94</ele><time>2025-10-27T22:27:04.000Z</time></trkpt>
        <trkpt lat="28.6632251" lon="105.3829238"><ele>218.77</ele><time>2025-10-27T22:27:10.000Z</time></trkpt>
        <trkpt lat="28.6632727" lon="105.382831"><ele>217.42</ele><time>2025-10-27T22:27:16.000Z</time></trkpt>
        <trkpt lat="28.663345" lon="105.3827587"><ele>216.34</ele><time>2025-10-27T22:27:24.000Z</time></trkpt>
        <trkpt lat="28.6634282" lon="105.3827084"><ele>214.6</ele><time>2025-10-27T22:27:30.000Z</time></trkpt>
        <trkpt lat="28.6635182" lon="105.3826638"><ele>213.35</ele><time>2025-10-27T22:27:36.000Z</time></trkpt>
        <trkpt lat="28.6635944" lon="105.3826053"><ele>214.33</ele><time>2025-10-27T22:27:42.000Z</time></trkpt>
        <trkpt lat="28.6636407" lon="105.3825001"><ele>214.65</ele><time>2025-10-27T22:27:50.000Z</time></trkpt>
        <trkpt lat="28.6636632" lon="105.382369"><ele>214.83</ele><time>2025-10-27T22:27:58.000Z</time></trkpt>
        <trkpt lat="28.6636479" lon="105.3822556"><ele>216.28</ele><time>2025-10-27T22:28:04.000Z</time></trkpt>
        <trkpt lat="28.6636088" lon="105.3821287"><ele>216.95</ele><time>2025-10-27T22:28:12.000Z</time></trkpt>
        <trkpt lat="28.6635686" lon="105.3820164"><ele>217.78</ele><time>2025-10-27T22:28:18.000Z</time></trkpt>
        <trkpt lat="28.6635363" lon="105.3819105"><ele>218.92</ele><time>2025-10-27T22:28:24.000Z</time></trkpt>
        <trkpt lat="28.6635425" lon="105.3817991"><ele>219.78</ele><time>2025-10-27T22:28:30.000Z</time></trkpt>
        <trkpt lat="28.6635894" lon="105.3817041"><ele>220.01</ele><time>2025-10-27T22:28:36.000Z</time></trkpt>
        <trkpt lat="28.6636755" lon="105.3816299"><ele>220.35</ele><time>2025-10-27T22:28:44.000Z</time></trkpt>
        <trkpt lat="28.663777" lon="105.3815626"><ele>221.32</ele><time>2025-10-27T22:28:52.000Z</time></trkpt>
        <trkpt lat="28.663837" lon="105.3814538"><ele>221.25</ele><time>2025-10-27T22:29:00.000Z</time></trkpt>
        <trkpt lat="28.6638321" lon="105.3813463"><ele>220.55</ele><time>2025-10-27T22:29:06.000Z</time></trkpt>
        <trkpt lat="28.6637812" lon="105.3812542"><ele>220.58</ele><time>2025-10-27T22:29:14.000Z</time></trkpt>
        <trkpt lat="28.6637928" lon="105.3811485"><ele>219.59</ele><time>2025-10-27T22:29:20.000Z</time></trkpt>
        <trkpt lat="28.6637925" lon="105.3810385"><ele>219.61</ele><time>2025-10-27T22:29:28.000Z</time></trkpt>
        <trkpt lat="28.6637837" lon="105.3809118"><ele>219.1</ele><time>2025-10-27T22:29:36.000Z</time></trkpt>
        <trkpt lat="28.6637814" lon="105.3807796"><ele>217.5</ele><time>2025-10-27T22:29:42.000Z</time></trkpt>
        <trkpt lat="28.6638051" lon="105.3806507"><ele>217.11</ele><time>2025-10-27T22:29:48.000Z</time></trkpt>
        <trkpt lat="28.6638302" lon="105.3805349"><ele>218.49</ele><time>2025-10-27T22:29:54.000Z</time></trkpt>
        <trkpt lat="28.6638581" lon="105.3804069"><ele>220.62</ele><time>2025-10-27T22:30:02.000Z</time></trkpt>
        <trkpt lat="28.6638792" lon="105.3802963"><ele>222.63</ele><time>2025-10-27T22:30:08.000Z</time></trkpt>
        <trkpt lat="28.6638479" lon="105.3801873"><ele>223.61</ele><time>2025-10-27T22:30:16.000Z</time></trkpt>
        <trkpt lat="28.6637622" lon="105.3801045"><ele>224.63</ele><time>2025-10-27T22:30:24.000Z</time></trkpt>
        <trkpt lat="28.6637367" lon="105.3800021"><ele>224.45</ele><time>2025-10-27T22:30:32.000Z</time></trkpt>
        <trkpt lat="28.6637852" lon="105.379926"><ele>224.34</ele><time>2025-10-27T22:30:38.000Z</time></trkpt>
        <trkpt lat="28.6638892" lon="105.3798989"><ele>223.5</ele><time>2025-10-27T22:30:46.000Z</time></trkpt>
        <trkpt lat="28.6639969" lon="105.3799146"><ele>222.12</ele><time>2025-10-27T22:30:52.000Z</time></trkpt>
        <trkpt lat="28.6641176" lon="105.3799474"><ele>221.35</ele><time>2025-10-27T22:31:00.000Z</time></trkpt>
        <trkpt lat="28.6642193" lon="105.3799779"><ele>219.33</ele><time>2025-10-27T22:31:06.000Z</time></trkpt>
        <trkpt lat="28.6643108" lon="105.3800221"><ele>218.73</ele><time>2025-10-27T22:31:14.000Z</time></trkpt>
        <trkpt lat="28.6644204" lon="105.3800474"><ele>217.42</ele><time>2025-10-27T22:31:22.000Z</time></trkpt>
        <trkpt lat="28.6645085" lon="105.3800953"><ele>217.19</ele><time>2025-10-27T22:31:28.000Z</time></trkpt>
        <trkpt lat="28.6646057" lon="105.3801196"><ele>217.6</ele><time>2025-10-27T22:31:34.000Z</time></trkpt>
        <trkpt lat="28.6647157" lon="105.3801339"><ele>217.31</ele><time>2025-10-27T22:31:42.000Z</time></trkpt>
        <trkpt lat="28.6648223" lon="105.3801507"><ele>217.46</ele><time>2025-10-27T22:31:50.000Z</time></trkpt>
        <trkpt lat="28.6649309" lon="105.3801792"><ele>217.88</ele><time>2025-10-27T22:31:58.000Z</time></trkpt>
        <trkpt lat="28.6649896" lon="105.3802066"><ele>218.96</ele><time>2025-10-27T22:32:08.000Z</time></trkpt>
        <trkpt lat="28.6650625" lon="105.3802835"><ele>220.58</ele><time>2025-10-27T22:32:24.000Z</time></trkpt>
        <trkpt lat="28.6651384" lon="105.3803516"><ele>219.43</ele><time>2025-10-27T22:32:30.000Z</time></trkpt>
        <trkpt lat="28.6652236" lon="105.3803946"><ele>218.2</ele><time>2025-10-27T22:32:38.000Z</time></trkpt>
        <trkpt lat="28.6653229" lon="105.3804358"><ele>217.54</ele><time>2025-10-27T22:32:46.000Z</time></trkpt>
        <trkpt lat="28.6654198" lon="105.3804616"><ele>217.37</ele><time>2025-10-27T22:32:52.000Z</time></trkpt>
        <trkpt lat="28.6655082" lon="105.3804974"><ele>217.03</ele><time>2025-10-27T22:32:56.000Z</time></trkpt>
        <trkpt lat="28.6655904" lon="105.3805495"><ele>217.62</ele><time>2025-10-27T22:33:02.000Z</time></trkpt>
        <trkpt lat="28.6656509" lon="105.3806505"><ele>218.76</ele><time>2025-10-27T22:33:08.000Z</time></trkpt>
        <trkpt lat="28.6657367" lon="105.3807084"><ele>221.89</ele><time>2025-10-27T22:33:14.000Z</time></trkpt>
        <trkpt lat="28.6658275" lon="105.3807276"><ele>226.35</ele><time>2025-10-27T22:33:20.000Z</time></trkpt>
        <trkpt lat="28.6659146" lon="105.3807657"><ele>229.58</ele><time>2025-10-27T22:33:34.000Z</time></trkpt>
        <trkpt lat="28.6660104" lon="105.3808056"><ele>229.84</ele><time>2025-10-27T22:33:42.000Z</time></trkpt>
        <trkpt lat="28.6661046" lon="105.3808369"><ele>229.94</ele><time>2025-10-27T22:33:48.000Z</time></trkpt>
        <trkpt lat="28.6661935" lon="105.3809007"><ele>230.54</ele><time>2025-10-27T22:33:56.000Z</time></trkpt>
        <trkpt lat="28.6662509" lon="105.3810051"><ele>232.73</ele><time>2025-10-27T22:34:08.000Z</time></trkpt>
        <trkpt lat="28.6662716" lon="105.3811168"><ele>235.45</ele><time>2025-10-27T22:34:18.000Z</time></trkpt>
        <trkpt lat="28.666251" lon="105.3812304"><ele>237.65</ele><time>2025-10-27T22:34:32.000Z</time></trkpt>
        <trkpt lat="28.6662675" lon="105.3813404"><ele>238.86</ele><time>2025-10-27T22:34:44.000Z</time></trkpt>
        <trkpt lat="28.6661969" lon="105.3813325"><ele>241.21</ele><time>2025-10-27T22:34:58.000Z</time></trkpt>
        <trkpt lat="28.6661173" lon="105.381251"><ele>244.04</ele><time>2025-10-27T22:35:08.000Z</time></trkpt>
        <trkpt lat="28.6660271" lon="105.3811649"><ele>247.06</ele><time>2025-10-27T22:35:18.000Z</time></trkpt>
        <trkpt lat="28.665986" lon="105.3811234"><ele>249.86</ele><time>2025-10-27T22:35:30.000Z</time></trkpt>
        <trkpt lat="28.665986" lon="105.3811234"><ele>249.86</ele><time>2025-10-27T22:35:43.000Z</time></trkpt>
      </trkseg>
  </trk>
</gpx>